Time,TemperatureF,DewpointF,PressureIn,WindDirection,WindDirectionDegrees,WindSpeedMPH,WindSpeedGustMPH,Humidity,HourlyPrecipIn,Conditions,Clouds,dailyrainin,SoftwareType,DateUTC
2013-02-20 00:00:00,31.6,31.6,29.74,ENE,71,0.0,0.0,100,0.00,,,0.22,Wunderground v.1.12,2013-02-20 08:00:00,
2013-02-20 00:10:00,31.0,31.0,29.75,ENE,71,0.0,0.0,100,0.00,,,0.00,Wunderground v.1.12,2013-02-20 08:10:00,
2013-02-20 00:20:00,31.0,31.0,29.75,ENE,71,0.0,0.0,100,0.00,,,0.00,Wunderground v.1.12,2013-02-20 08:20:00,
2013-02-20 00:30:00,31.0,31.0,29.75,ENE,74,0.0,0.0,100,0.00,,,0.00,Wunderground v.1.12,2013-02-20 08:30:00,
2013-02-20 00:40:00,31.2,31.2,29.75,ENE,74,0.0,1.0,100,0.00,,,0.00,Wunderground v.1.12,2013-02-20 08:40:00,
2013-02-20 00:50:00,30.6,30.6,29.75,ENE,71,0.0,0.0,100,0.00,,,0.00,Wunderground v.1.12,2013-02-20 08:50:00,
2013-02-20 01:00:00,30.6,30.6,29.75,ENE,71,0.0,0.0,100,0.00,,,0.00,Wunderground v.1.12,2013-02-20 09:00:00,
2013-02-20 01:10:00,30.4,30.4,29.75,ENE,71,0.0,0.0,100,0.00,,,0.00,Wunderground v.1.12,2013-02-20 09:10:00,
2013-02-20 01:20:00,30.1,30.1,29.76,ENE,71,0.0,0.0,100,0.00,,,0.00,Wunderground v.1.12,2013-02-20 09:20:00,
2013-02-20 01:30:00,30.1,30.1,29.76,ENE,71,0.0,0.0,100,0.00,,,0.00,Wunderground v.1.12,2013-02-20 09:30:00,
2013-02-20 01:40:00,30.0,30.0,29.76,ENE,71,0.0,0.0,100,0.00,,,0.00,Wunderground v.1.12,2013-02-20 09:40:00,
2013-02-20 01:50:00,29.5,29.5,29.77,ENE,71,0.0,0.0,100,0.00,,,0.00,Wunderground v.1.12,2013-02-20 09:50:00,
2013-02-20 02:00:00,29.8,29.8,29.77,ENE,71,0.0,0.0,100,0.00,,,0.00,Wunderground v.1.12,2013-02-20 10:00:00,
2013-02-20 02:10:00,29.5,29.5,29.77,ENE,71,0.0,0.0,100,0.00,,,0.00,Wunderground v.1.12,2013-02-20 10:10:00,
2013-02-20 02:20:00,29.7,29.7,29.78,ENE,71,0.0,0.0,100,0.00,,,0.00,Wunderground v.1.12,2013-02-20 10:20:00,
2013-02-20 02:30:00,30.6,30.6,29.78,ESE,119,0.0,0.0,100,0.00,,,0.00,Wunderground v.1.12,2013-02-20 10:30:00,
2013-02-20 02:40:00,30.3,30.3,29.78,NE,51,0.0,0.0,100,0.00,,,0.00,Wunderground v.1.12,2013-02-20 10:40:00,
2013-02-20 02:50:00,30.0,30.0,29.78,NE,51,0.0,0.0,100,0.00,,,0.00,Wunderground v.1.12,2013-02-20 10:50:00,
2013-02-20 03:00:00,29.5,29.5,29.78,NE,51,0.0,0.0,100,0.00,,,0.00,Wunderground v.1.12,2013-02-20 11:00:00,
2013-02-20 03:10:00,29.8,29.8,29.79,NE,51,0.0,0.0,100,0.00,,,0.00,Wunderground v.1.12,2013-02-20 11:10:00,
2013-02-20 03:20:00,29.8,29.8,29.79,NE,51,0.0,0.0,100,0.00,,,0.00,Wunderground v.1.12,2013-02-20 11:20:00,
2013-02-20 03:30:00,30.1,30.1,29.79,NE,51,0.0,0.0,100,0.00,,,0.00,Wunderground v.1.12,2013-02-20 11:30:00,
2013-02-20 03:40:00,30.0,30.0,29.79,NE,51,0.0,0.0,100,0.00,,,0.00,Wunderground v.1.12,2013-02-20 11:40:00,
2013-02-20 03:50:00,29.5,29.5,29.80,NE,51,0.0,0.0,100,0.00,,,0.00,Wunderground v.1.12,2013-02-20 11:50:00,
2013-02-20 04:00:00,29.1,29.1,29.80,NE,51,0.0,0.0,100,0.00,,,0.00,Wunderground v.1.12,2013-02-20 12:00:00,
2013-02-20 04:10:00,29.1,29.1,29.80,NE,51,0.0,0.0,100,0.00,,,0.00,Wunderground v.1.12,2013-02-20 12:10:00,
2013-02-20 04:20:00,29.1,29.1,29.80,NE,51,0.0,0.0,100,0.00,,,0.00,Wunderground v.1.12,2013-02-20 12:20:00,
2013-02-20 04:30:00,29.0,29.0,29.80,NE,51,0.0,0.0,100,0.00,,,0.00,Wunderground v.1.12,2013-02-20 12:30:00,
2013-02-20 04:40:00,29.0,29.0,29.81,NE,42,0.0,0.0,100,0.00,,,0.00,Wunderground v.1.12,2013-02-20 12:40:00,
2013-02-20 04:50:00,28.8,28.8,29.81,NE,42,0.0,0.0,100,0.00,,,0.00,Wunderground v.1.12,2013-02-20 12:50:00,
2013-02-20 05:00:00,29.1,29.1,29.81,NE,42,0.0,0.0,100,0.00,,,0.00,Wunderground v.1.12,2013-02-20 13:00:00,
2013-02-20 05:10:00,29.1,29.1,29.82,NE,43,0.0,0.0,100,0.00,,,0.00,Wunderground v.1.12,2013-02-20 13:10:00,
2013-02-20 05:20:00,29.0,29.0,29.82,NE,42,0.0,0.0,100,0.00,,,0.00,Wunderground v.1.12,2013-02-20 13:20:00,
2013-02-20 05:30:00,28.8,28.8,29.82,NE,42,0.0,0.0,100,0.00,,,0.00,Wunderground v.1.12,2013-02-20 13:30:00,
2013-02-20 05:40:00,28.7,28.7,29.82,NE,42,0.0,0.0,100,0.00,,,0.00,Wunderground v.1.12,2013-02-20 13:40:00,
2013-02-20 05:50:00,28.5,28.5,29.83,NE,42,0.0,0.0,100,0.00,,,0.00,Wunderground v.1.12,2013-02-20 13:50:00,
2013-02-20 06:00:00,28.1,28.1,29.83,NE,42,0.0,0.0,100,0.00,,,0.00,Wunderground v.1.12,2013-02-20 14:00:00,
2013-02-20 06:10:00,27.9,27.9,29.84,NE,38,0.0,0.0,100,0.00,,,0.00,Wunderground v.1.12,2013-02-20 14:10:00,
2013-02-20 06:20:00,28.1,28.1,29.84,NE,38,0.0,0.0,100,0.00,,,0.00,Wunderground v.1.12,2013-02-20 14:20:00,
2013-02-20 06:30:00,28.5,28.5,29.84,NE,40,0.0,0.0,100,0.00,,,0.00,Wunderground v.1.12,2013-02-20 14:30:00,
2013-02-20 06:40:00,28.5,28.5,29.84,NE,40,0.0,0.0,100,0.00,,,0.00,Wunderground v.1.12,2013-02-20 14:40:00,
2013-02-20 06:50:00,28.1,28.1,29.84,NE,40,0.0,0.0,100,0.00,,,0.00,Wunderground v.1.12,2013-02-20 14:50:00,
2013-02-20 07:00:00,27.9,27.9,29.84,NE,40,0.0,0.0,100,0.00,,,0.00,Wunderground v.1.12,2013-02-20 15:00:00,
2013-02-20 07:10:00,28.1,28.1,29.85,NE,40,0.0,0.0,100,0.00,,,0.00,Wunderground v.1.12,2013-02-20 15:10:00,
2013-02-20 07:20:00,28.4,28.4,29.86,NE,40,0.0,0.0,100,0.00,,,0.00,Wunderground v.1.12,2013-02-20 15:20:00,
2013-02-20 07:30:00,28.7,28.7,29.86,NE,40,0.0,0.0,100,0.00,,,0.00,Wunderground v.1.12,2013-02-20 15:30:00,
2013-02-20 07:40:00,29.0,29.0,29.86,NE,40,0.0,0.0,100,0.00,,,0.00,Wunderground v.1.12,2013-02-20 15:40:00,
2013-02-20 07:50:00,29.8,29.8,29.88,NE,40,0.0,0.0,100,0.00,,,0.00,Wunderground v.1.12,2013-02-20 15:50:00,
2013-02-20 08:00:00,30.1,30.1,29.88,NE,39,0.0,0.0,100,0.00,,,0.00,Wunderground v.1.12,2013-02-20 16:00:00,
2013-02-20 08:10:00,31.8,31.8,29.89,NE,39,0.0,0.0,100,0.00,,,0.00,Wunderground v.1.12,2013-02-20 16:10:00,
2013-02-20 08:20:00,33.1,33.1,29.89,NE,39,0.0,0.0,100,0.00,,,0.00,Wunderground v.1.12,2013-02-20 16:20:00,
2013-02-20 08:30:00,34.7,34.7,29.89,NE,38,0.0,0.0,100,0.00,,,0.00,Wunderground v.1.12,2013-02-20 16:30:00,
2013-02-20 08:40:00,36.5,36.5,29.89,NE,39,0.0,0.0,100,0.00,,,0.00,Wunderground v.1.12,2013-02-20 16:40:00,
2013-02-20 08:50:00,37.2,37.2,29.89,NE,39,0.0,0.0,100,0.00,,,0.00,Wunderground v.1.12,2013-02-20 16:50:00,
2013-02-20 09:00:00,38.8,38.8,29.89,NE,39,0.0,0.0,100,0.00,,,0.00,Wunderground v.1.12,2013-02-20 17:00:00,
2013-02-20 09:10:00,40.2,40.2,29.89,NE,39,0.0,0.0,100,0.00,,,0.00,Wunderground v.1.12,2013-02-20 17:10:00,
2013-02-20 09:20:00,41.1,41.1,29.90,NE,40,0.0,0.0,100,0.00,,,0.00,Wunderground v.1.12,2013-02-20 17:20:00,
2013-02-20 09:30:00,42.9,42.9,29.90,NE,40,0.0,0.0,100,0.00,,,0.00,Wunderground v.1.12,2013-02-20 17:30:00,
2013-02-20 09:40:00,44.5,44.5,29.91,NNE,20,0.0,0.0,100,0.00,,,0.00,Wunderground v.1.12,2013-02-20 17:40:00,
2013-02-20 09:50:00,46.0,46.0,29.91,NE,46,0.0,0.0,100,0.00,,,0.00,Wunderground v.1.12,2013-02-20 17:50:00,
2013-02-20 10:00:00,48.0,48.0,29.91,ENE,70,0.0,0.0,100,0.00,,,0.00,Wunderground v.1.12,2013-02-20 18:00:00,
2013-02-20 10:10:00,49.2,49.2,29.91,NE,42,0.0,0.0,100,0.00,,,0.00,Wunderground v.1.12,2013-02-20 18:10:00,
2013-02-20 10:20:00,50.5,50.5,29.91,NE,42,0.0,0.0,100,0.00,,,0.00,Wunderground v.1.12,2013-02-20 18:20:00,
2013-02-20 10:30:00,52.2,52.2,29.91,East,86,0.0,0.0,100,0.00,,,0.00,Wunderground v.1.12,2013-02-20 18:30:00,
2013-02-20 10:40:00,52.9,52.9,29.91,ENE,61,0.0,0.0,100,0.00,,,0.00,Wunderground v.1.12,2013-02-20 18:40:00,
2013-02-20 10:50:00,52.9,52.9,29.91,WSW,241,2.0,2.0,100,0.00,,,0.00,Wunderground v.1.12,2013-02-20 18:50:00,
2013-02-20 11:00:00,53.5,53.5,29.91,SW,228,3.0,5.0,100,0.00,,,0.00,Wunderground v.1.12,2013-02-20 19:00:00,
2013-02-20 11:10:00,53.3,53.3,29.91,WNW,288,2.0,2.0,100,0.00,,,0.00,Wunderground v.1.12,2013-02-20 19:10:00,
2013-02-20 11:20:00,53.5,53.5,29.91,SW,221,4.0,4.0,100,0.00,,,0.00,Wunderground v.1.12,2013-02-20 19:20:00,
2013-02-20 11:30:00,54.1,54.1,29.91,WSW,250,4.0,8.0,100,0.00,,,0.00,Wunderground v.1.12,2013-02-20 19:30:00,
2013-02-20 11:40:00,54.2,54.2,29.91,WSW,244,5.0,5.0,100,0.00,,,0.00,Wunderground v.1.12,2013-02-20 19:40:00,
2013-02-20 11:50:00,54.7,54.7,29.91,WNW,290,5.0,6.0,100,0.00,,,0.00,Wunderground v.1.12,2013-02-20 19:50:00,
2013-02-20 12:00:00,54.8,54.8,29.91,WSW,254,5.0,5.0,100,0.00,,,0.00,Wunderground v.1.12,2013-02-20 20:00:00,
2013-02-20 12:10:00,54.1,54.1,29.91,WSW,248,6.0,7.0,100,0.00,,,0.00,Wunderground v.1.12,2013-02-20 20:10:00,
2013-02-20 12:20:00,54.8,54.8,29.91,WNW,290,6.0,11.0,100,0.00,,,0.00,Wunderground v.1.12,2013-02-20 20:20:00,
2013-02-20 12:30:00,54.2,54.2,29.91,WNW,292,7.0,7.0,100,0.00,,,0.00,Wunderground v.1.12,2013-02-20 20:30:00,
2013-02-20 12:40:00,54.8,54.8,29.90,SW,236,7.0,7.0,100,0.00,,,0.00,Wunderground v.1.12,2013-02-20 20:40:00,
2013-02-20 12:50:00,54.4,54.4,29.90,West,266,8.0,10.0,100,0.00,,,0.00,Wunderground v.1.12,2013-02-20 20:50:00,
2013-02-20 13:00:00,54.8,54.8,29.90,WNW,298,8.0,8.0,100,0.00,,,0.00,Wunderground v.1.12,2013-02-20 21:00:00,
2013-02-20 13:10:00,55.1,55.1,29.90,WNW,286,8.0,8.0,100,0.00,,,0.00,Wunderground v.1.12,2013-02-20 21:10:00,
2013-02-20 13:20:00,55.6,55.6,29.89,WNW,291,5.0,5.0,100,0.00,,,0.00,Wunderground v.1.12,2013-02-20 21:20:00,
2013-02-20 13:30:00,55.9,55.9,29.89,WSW,255,5.0,8.0,100,0.00,,,0.00,Wunderground v.1.12,2013-02-20 21:30:00,
2013-02-20 13:40:00,55.0,55.0,29.89,West,281,7.0,7.0,100,0.00,,,0.00,Wunderground v.1.12,2013-02-20 21:40:00,
2013-02-20 13:50:00,54.1,54.1,29.88,NW,317,9.0,9.0,100,0.00,,,0.00,Wunderground v.1.12,2013-02-20 21:50:00,
2013-02-20 14:00:00,55.0,55.0,29.88,WNW,285,7.0,7.0,100,0.00,,,0.00,Wunderground v.1.12,2013-02-20 22:00:00,
2013-02-20 14:10:00,56.0,56.0,29.87,SSW,203,5.0,5.0,100,0.00,,,0.00,Wunderground v.1.12,2013-02-20 22:10:00,
2013-02-20 14:20:00,56.3,56.3,29.87,West,261,6.0,7.0,100,0.00,,,0.00,Wunderground v.1.12,2013-02-20 22:20:00,
2013-02-20 14:30:00,56.3,56.3,29.87,WSW,251,5.0,6.0,100,0.00,,,0.00,Wunderground v.1.12,2013-02-20 22:30:00,
2013-02-20 14:40:00,55.4,55.4,29.87,WNW,282,7.0,7.0,100,0.00,,,0.00,Wunderground v.1.12,2013-02-20 22:40:00,
2013-02-20 14:50:00,55.7,55.7,29.87,WNW,282,5.0,5.0,100,0.00,,,0.00,Wunderground v.1.12,2013-02-20 22:50:00,
2013-02-20 15:00:00,56.0,56.0,29.87,West,261,6.0,6.0,100,0.00,,,0.00,Wunderground v.1.12,2013-02-20 23:00:00,
2013-02-20 15:10:00,54.8,54.8,29.87,WNW,302,7.0,13.0,100,0.00,,,0.00,Wunderground v.1.12,2013-02-20 23:10:00,
2013-02-20 15:20:00,54.2,54.2,29.87,WNW,286,9.0,9.0,100,0.00,,,0.00,Wunderground v.1.12,2013-02-20 23:20:00,
2013-02-20 15:30:00,53.6,53.6,29.87,WNW,292,9.0,19.0,100,0.00,,,0.00,Wunderground v.1.12,2013-02-20 23:30:00,
2013-02-20 15:40:00,53.5,53.5,29.88,WNW,292,9.0,9.0,100,0.00,,,0.00,Wunderground v.1.12,2013-02-20 23:40:00,
2013-02-20 15:50:00,54.1,54.1,29.89,WSW,243,6.0,6.0,100,0.00,,,0.00,Wunderground v.1.12,2013-02-20 23:50:00,
2013-02-20 16:00:00,54.4,54.4,29.89,West,268,4.0,4.0,100,0.00,,,0.00,Wunderground v.1.12,2013-02-21 00:00:00,
2013-02-20 16:10:00,52.6,52.6,29.89,WNW,285,8.0,15.0,100,0.00,,,0.00,Wunderground v.1.12,2013-02-21 00:10:00,
2013-02-20 16:20:00,52.2,52.2,29.90,West,271,9.0,11.0,100,0.00,,,0.00,Wunderground v.1.12,2013-02-21 00:20:00,
2013-02-20 16:30:00,51.6,51.6,29.90,West,273,10.0,10.0,100,0.00,,,0.00,Wunderground v.1.12,2013-02-21 00:30:00,
2013-02-20 16:40:00,51.1,51.1,29.89,West,269,9.0,9.0,100,0.00,,,0.00,Wunderground v.1.12,2013-02-21 00:40:00,
2013-02-20 16:50:00,51.1,51.1,29.89,WNW,302,6.0,13.0,100,0.00,,,0.00,Wunderground v.1.12,2013-02-21 00:50:00,
2013-02-20 17:00:00,50.8,50.8,29.89,NW,304,7.0,11.0,100,0.00,,,0.00,Wunderground v.1.12,2013-02-21 01:00:00,
2013-02-20 17:10:00,50.4,50.4,29.89,WNW,287,6.0,6.0,100,0.00,,,0.00,Wunderground v.1.12,2013-02-21 01:10:00,
2013-02-20 17:20:00,50.1,50.1,29.90,SW,224,5.0,5.0,100,0.00,,,0.00,Wunderground v.1.12,2013-02-21 01:20:00,
2013-02-20 17:30:00,49.5,49.5,29.90,West,274,4.0,5.0,100,0.00,,,0.00,Wunderground v.1.12,2013-02-21 01:30:00,
2013-02-20 17:40:00,48.9,48.9,29.90,SSW,208,3.0,4.0,100,0.00,,,0.00,Wunderground v.1.12,2013-02-21 01:40:00,
2013-02-20 17:50:00,48.5,48.5,29.90,SSW,213,3.0,3.0,100,0.00,,,0.00,Wunderground v.1.12,2013-02-21 01:50:00,
2013-02-20 18:00:00,48.0,48.0,29.90,West,277,2.0,4.0,100,0.00,,,0.00,Wunderground v.1.12,2013-02-21 02:00:00,
2013-02-20 18:10:00,47.7,47.7,29.90,West,263,1.0,2.0,100,0.00,,,0.00,Wunderground v.1.12,2013-02-21 02:10:00,
2013-02-20 18:20:00,47.3,47.3,29.90,WSW,257,1.0,2.0,100,0.00,,,0.00,Wunderground v.1.12,2013-02-21 02:20:00,
2013-02-20 18:30:00,47.1,47.1,29.90,SW,225,2.0,4.0,100,0.00,,,0.00,Wunderground v.1.12,2013-02-21 02:30:00,
2013-02-20 18:40:00,47.0,47.0,29.91,West,265,2.0,2.0,100,0.00,,,0.00,Wunderground v.1.12,2013-02-21 02:40:00,
2013-02-20 18:50:00,47.0,47.0,29.91,WNW,284,2.0,2.0,100,0.00,,,0.00,Wunderground v.1.12,2013-02-21 02:50:00,
2013-02-20 19:00:00,46.8,46.8,29.91,WNW,296,1.0,1.0,100,0.00,,,0.00,Wunderground v.1.12,2013-02-21 03:00:00,
2013-02-20 19:10:00,46.5,46.5,29.91,SSW,206,0.0,0.0,100,0.00,,,0.00,Wunderground v.1.12,2013-02-21 03:10:00,
2013-02-20 19:20:00,46.5,46.5,29.92,WNW,291,1.0,1.0,100,0.00,,,0.00,Wunderground v.1.12,2013-02-21 03:20:00,
2013-02-20 19:30:00,46.5,46.5,29.92,SW,223,1.0,1.0,100,0.00,,,0.00,Wunderground v.1.12,2013-02-21 03:30:00,
2013-02-20 19:40:00,46.2,46.2,29.93,West,267,0.0,0.0,100,0.00,,,0.00,Wunderground v.1.12,2013-02-21 03:40:00,
2013-02-20 19:50:00,46.4,46.4,29.93,WNW,288,1.0,1.0,100,0.00,,,0.00,Wunderground v.1.12,2013-02-21 03:50:00,
2013-02-20 20:00:00,46.4,46.4,29.93,West,280,1.0,3.0,100,0.00,,,0.00,Wunderground v.1.12,2013-02-21 04:00:00,
2013-02-20 20:10:00,46.2,46.2,29.93,West,281,1.0,1.0,100,0.00,,,0.00,Wunderground v.1.12,2013-02-21 04:10:00,
2013-02-20 20:20:00,45.7,45.7,29.93,West,278,0.0,0.0,100,0.00,,,0.00,Wunderground v.1.12,2013-02-21 04:20:00,
2013-02-20 20:30:00,45.4,45.4,29.93,West,278,0.0,0.0,100,0.00,,,0.00,Wunderground v.1.12,2013-02-21 04:30:00,
2013-02-20 20:40:00,44.8,44.8,29.94,West,260,0.0,3.0,100,0.00,,,0.00,Wunderground v.1.12,2013-02-21 04:40:00,
2013-02-20 20:50:00,45.2,45.2,29.94,SSW,210,0.0,1.0,100,0.00,,,0.00,Wunderground v.1.12,2013-02-21 04:50:00,
2013-02-20 21:00:00,45.2,45.2,29.94,SSW,205,0.0,0.0,100,0.00,,,0.00,Wunderground v.1.12,2013-02-21 05:00:00,
2013-02-20 21:10:00,45.2,45.2,29.94,WSW,242,0.0,1.0,100,0.00,,,0.00,Wunderground v.1.12,2013-02-21 05:10:00,
2013-02-20 21:20:00,45.7,45.7,29.95,WSW,238,3.0,3.0,100,0.00,,,0.00,Wunderground v.1.12,2013-02-21 05:20:00,
2013-02-20 21:30:00,45.5,45.5,29.95,West,279,1.0,1.0,100,0.00,,,0.00,Wunderground v.1.12,2013-02-21 05:30:00,
2013-02-20 21:40:00,44.3,44.3,29.95,West,270,0.0,3.0,100,0.00,,,-99.99,WeatherLink 5.8.2,2013-02-21 05:40:00,
2013-02-20 21:50:00,44.3,44.3,29.96,West,259,0.0,0.0,100,0.00,,,0.00,Wunderground v.1.12,2013-02-21 05:50:00,
2013-02-20 22:00:00,44.1,44.1,29.96,West,260,0.0,0.0,100,0.00,,,0.00,Wunderground v.1.12,2013-02-21 06:00:00,
2013-02-20 22:10:00,43.9,43.9,29.96,WNW,302,0.0,2.0,100,0.00,,,0.00,Wunderground v.1.12,2013-02-21 06:10:00,
2013-02-20 22:20:00,44.5,44.5,29.95,SW,215,2.0,2.0,100,0.00,,,0.00,Wunderground v.1.12,2013-02-21 06:20:00,
2013-02-20 22:30:00,44.6,44.6,29.95,WNW,291,1.0,2.0,100,0.00,,,0.00,Wunderground v.1.12,2013-02-21 06:30:00,
2013-02-20 22:40:00,44.6,44.6,29.95,WNW,290,1.0,1.0,100,0.00,,,0.00,Wunderground v.1.12,2013-02-21 06:40:00,
2013-02-20 22:50:00,44.3,44.3,29.95,WNW,291,1.0,1.0,100,0.00,,,0.00,Wunderground v.1.12,2013-02-21 06:50:00,
2013-02-20 23:00:00,43.5,43.5,29.95,WNW,294,0.0,0.0,100,0.00,,,0.00,Wunderground v.1.12,2013-02-21 07:00:00,
2013-02-20 23:10:00,42.2,42.2,29.95,WNW,296,0.0,0.0,100,0.00,,,0.00,Wunderground v.1.12,2013-02-21 07:10:00,
2013-02-20 23:20:00,41.6,41.6,29.95,WNW,297,0.0,0.0,100,0.00,,,0.00,Wunderground v.1.12,2013-02-21 07:20:00,
2013-02-20 23:30:00,41.6,41.6,29.95,WNW,296,0.0,2.0,100,0.00,,,0.00,Wunderground v.1.12,2013-02-21 07:30:00,
2013-02-20 23:40:00,43.3,43.3,29.95,WNW,293,2.0,5.0,100,0.00,,,0.00,Wunderground v.1.12,2013-02-21 07:40:00,
2013-02-20 23:50:00,43.8,43.8,29.95,West,277,1.0,1.0,100,0.00,,,0.00,Wunderground v.1.12,2013-02-21 07:50:00,